sensor_id;sensor_type;location;lat;lon;timestamp;P1;durP1;ratioP1;P2;durP2;ratioP2
16159;SDS011;8185;57.818;15.224;2023-10-08T09:09:23;1.70;;;0.60;;
16159;SDS011;8185;57.818;15.224;2023-10-08T09:11:57;1.50;;;0.63;;
16159;SDS011;8185;57.818;15.224;2023-10-08T09:14:25;1.33;;;0.70;;
16159;SDS011;8185;57.818;15.224;2023-10-08T09:16:57;0.90;;;0.57;;
16159;SDS011;8185;57.818;15.224;2023-10-08T09:19:46;1.27;;;0.50;;
16159;SDS011;8185;57.818;15.224;2023-10-08T09:22:18;1.17;;;0.60;;
16159;SDS011;8185;57.818;15.224;2023-10-08T09:24:47;1.83;;;0.60;;
16159;SDS011;8185;57.818;15.224;2023-10-08T09:27:16;2.77;;;0.80;;
16159;SDS011;8185;57.818;15.224;2023-10-08T09:29:48;1.23;;;0.60;;
16159;SDS011;8185;57.818;15.224;2023-10-08T09:32:16;1.20;;;0.60;;
16159;SDS011;8185;57.818;15.224;2023-10-08T09:34:49;1.13;;;0.53;;
16159;SDS011;8185;57.818;15.224;2023-10-08T09:37:16;1.00;;;0.50;;
16159;SDS011;8185;57.818;15.224;2023-10-08T09:47:17;0.60;;;0.40;;
16159;SDS011;8185;57.818;15.224;2023-10-08T09:49:51;1.43;;;0.70;;
16159;SDS011;8185;57.818;15.224;2023-10-08T09:52:27;0.50;;;0.40;;
16159;SDS011;8185;57.818;15.224;2023-10-08T09:55:01;1.23;;;0.40;;
16159;SDS011;8185;57.818;15.224;2023-10-08T09:57:35;0.60;;;0.30;;
16159;SDS011;8185;57.818;15.224;2023-10-08T10:00:03;2.40;;;0.60;;
16159;SDS011;8185;57.818;15.224;2023-10-08T10:02:36;0.77;;;0.40;;
16159;SDS011;8185;57.818;15.224;2023-10-08T10:05:04;0.50;;;0.30;;
16159;SDS011;8185;57.818;15.224;2023-10-08T10:07:33;0.40;;;0.33;;
16159;SDS011;8185;57.818;15.224;2023-10-08T10:10:02;0.40;;;0.20;;
16159;SDS011;8185;57.818;15.224;2023-10-08T10:12:51;0.73;;;0.30;;
16159;SDS011;8185;57.818;15.224;2023-10-08T10:15:19;3.10;;;0.30;;
16159;SDS011;8185;57.818;15.224;2023-10-08T10:17:48;1.27;;;0.50;;
16159;SDS011;8185;57.818;15.224;2023-10-08T10:20:15;0.93;;;0.30;;
16159;SDS011;8185;57.818;15.224;2023-10-08T10:22:45;0.50;;;0.20;;
16159;SDS011;8185;57.818;15.224;2023-10-08T10:30:46;0.40;;;0.30;;
16159;SDS011;8185;57.818;15.224;2023-10-08T10:33:15;0.90;;;0.40;;
16159;SDS011;8185;57.818;15.224;2023-10-08T10:35:48;0.43;;;0.27;;
16159;SDS011;8185;57.818;15.224;2023-10-08T10:38:20;0.97;;;0.40;;
16159;SDS011;8185;57.818;15.224;2023-10-08T10:40:51;0.60;;;0.20;;
16159;SDS011;8185;57.818;15.224;2023-10-08T10:43:23;0.30;;;0.20;;
16159;SDS011;8185;57.818;15.224;2023-10-08T10:45:58;1.20;;;0.50;;
16159;SDS011;8185;57.818;15.224;2023-10-08T10:48:45;0.77;;;0.30;;
16159;SDS011;8185;57.818;15.224;2023-10-08T10:51:30;0.60;;;0.40;;
16159;SDS011;8185;57.818;15.224;2023-10-08T10:56:33;1.43;;;0.43;;
16159;SDS011;8185;57.818;15.224;2023-10-08T10:59:06;0.67;;;0.30;;
16159;SDS011;8185;57.818;15.224;2023-10-08T11:01:45;0.73;;;0.40;;
16159;SDS011;8185;57.818;15.224;2023-10-08T11:04:14;0.57;;;0.33;;
16159;SDS011;8185;57.818;15.224;2023-10-08T11:06:42;1.57;;;0.70;;
16159;SDS011;8185;57.818;15.224;2023-10-08T11:11:42;0.70;;;0.40;;
16159;SDS011;8185;57.818;15.224;2023-10-08T12:02:45;0.70;;;0.40;;
16159;SDS011;8185;57.818;15.224;2023-10-08T12:07:46;0.47;;;0.40;;
16159;SDS011;8185;57.818;15.224;2023-10-08T12:10:14;1.33;;;0.40;;
16159;SDS011;8185;57.818;15.224;2023-10-08T12:12:47;2.57;;;0.30;;
16159;SDS011;8185;57.818;15.224;2023-10-08T12:15:15;0.60;;;0.50;;
16159;SDS011;8185;57.818;15.224;2023-10-08T12:17:46;1.37;;;0.40;;
16159;SDS011;8185;57.818;15.224;2023-10-08T12:20:34;2.30;;;0.40;;
16159;SDS011;8185;57.818;15.224;2023-10-08T12:23:03;0.53;;;0.30;;
16159;SDS011;8185;57.818;15.224;2023-10-08T12:25:33;0.50;;;0.30;;
16159;SDS011;8185;57.818;15.224;2023-10-08T12:28:00;1.00;;;0.40;;
16159;SDS011;8185;57.818;15.224;2023-10-08T12:30:29;1.10;;;0.40;;
16159;SDS011;8185;57.818;15.224;2023-10-08T12:32:57;0.57;;;0.40;;
16159;SDS011;8185;57.818;15.224;2023-10-08T14:07:17;1.53;;;0.40;;
16159;SDS011;8185;57.818;15.224;2023-10-08T14:09:44;0.40;;;0.20;;
16159;SDS011;8185;57.818;15.224;2023-10-08T14:12:12;0.50;;;0.47;;
16159;SDS011;8185;57.818;15.224;2023-10-08T14:14:40;0.60;;;0.30;;
16159;SDS011;8185;57.818;15.224;2023-10-08T14:17:09;1.20;;;0.30;;
16159;SDS011;8185;57.818;15.224;2023-10-08T14:19:40;0.70;;;0.40;;
16159;SDS011;8185;57.818;15.224;2023-10-08T14:22:12;0.55;;;0.40;;
16159;SDS011;8185;57.818;15.224;2023-10-08T14:24:42;0.80;;;0.33;;
16159;SDS011;8185;57.818;15.224;2023-10-08T14:27:10;2.43;;;0.30;;
16159;SDS011;8185;57.818;15.224;2023-10-08T14:29:40;0.98;;;0.30;;
16159;SDS011;8185;57.818;15.224;2023-10-08T14:32:12;1.03;;;0.23;;
16159;SDS011;8185;57.818;15.224;2023-10-08T14:34:40;0.30;;;0.20;;
16159;SDS011;8185;57.818;15.224;2023-10-08T14:37:25;0.33;;;0.30;;
16159;SDS011;8185;57.818;15.224;2023-10-08T14:40:11;0.80;;;0.30;;
16159;SDS011;8185;57.818;15.224;2023-10-08T14:42:56;0.30;;;0.20;;
16159;SDS011;8185;57.818;15.224;2023-10-08T14:45:27;0.73;;;0.30;;
16159;SDS011;8185;57.818;15.224;2023-10-08T14:48:00;2.50;;;0.50;;
16159;SDS011;8185;57.818;15.224;2023-10-08T14:50:30;0.30;;;0.30;;
16159;SDS011;8185;57.818;15.224;2023-10-08T14:52:58;0.30;;;0.30;;
16159;SDS011;8185;57.818;15.224;2023-10-08T14:55:28;1.90;;;0.33;;
16159;SDS011;8185;57.818;15.224;2023-10-08T14:57:56;0.50;;;0.30;;
16159;SDS011;8185;57.818;15.224;2023-10-08T15:00:23;0.30;;;0.20;;
16159;SDS011;8185;57.818;15.224;2023-10-08T15:02:51;0.90;;;0.40;;
16159;SDS011;8185;57.818;15.224;2023-10-08T15:05:20;0.57;;;0.30;;
16159;SDS011;8185;57.818;15.224;2023-10-08T15:07:48;0.47;;;0.30;;
16159;SDS011;8185;57.818;15.224;2023-10-08T15:10:16;0.53;;;0.37;;
16159;SDS011;8185;57.818;15.224;2023-10-08T15:12:45;1.03;;;0.33;;
16159;SDS011;8185;57.818;15.224;2023-10-08T15:15:12;0.93;;;0.37;;
16159;SDS011;8185;57.818;15.224;2023-10-08T15:17:40;0.40;;;0.30;;
16159;SDS011;8185;57.818;15.224;2023-10-08T15:20:08;0.83;;;0.30;;
16159;SDS011;8185;57.818;15.224;2023-10-08T15:22:40;2.07;;;0.37;;
16159;SDS011;8185;57.818;15.224;2023-10-08T15:25:08;0.60;;;0.60;;
16159;SDS011;8185;57.818;15.224;2023-10-08T15:27:37;0.30;;;0.30;;
16159;SDS011;8185;57.818;15.224;2023-10-08T15:30:08;1.23;;;0.30;;
16159;SDS011;8185;57.818;15.224;2023-10-08T15:32:37;0.30;;;0.20;;
16159;SDS011;8185;57.818;15.224;2023-10-08T15:35:06;0.40;;;0.30;;
16159;SDS011;8185;57.818;15.224;2023-10-08T15:37:35;0.70;;;0.30;;
16159;SDS011;8185;57.818;15.224;2023-10-08T15:49:55;0.55;;;0.40;;
16159;SDS011;8185;57.818;15.224;2023-10-08T15:52:25;0.47;;;0.30;;
16159;SDS011;8185;57.818;15.224;2023-10-08T15:54:52;0.93;;;0.30;;
16159;SDS011;8185;57.818;15.224;2023-10-08T15:57:20;0.70;;;0.30;;
16159;SDS011;8185;57.818;15.224;2023-10-08T15:59:47;0.90;;;0.40;;
16159;SDS011;8185;57.818;15.224;2023-10-08T16:02:15;1.35;;;0.40;;
16159;SDS011;8185;57.818;15.224;2023-10-08T16:04:44;0.82;;;0.50;;
16159;SDS011;8185;57.818;15.224;2023-10-08T16:07:12;0.75;;;0.30;;
16159;SDS011;8185;57.818;15.224;2023-10-08T16:09:39;0.40;;;0.40;;
16159;SDS011;8185;57.818;15.224;2023-10-08T16:12:07;0.50;;;0.40;;
16159;SDS011;8185;57.818;15.224;2023-10-08T16:14:35;0.40;;;0.40;;
16159;SDS011;8185;57.818;15.224;2023-10-08T16:17:02;0.90;;;0.50;;
16159;SDS011;8185;57.818;15.224;2023-10-08T16:19:33;1.42;;;0.60;;
16159;SDS011;8185;57.818;15.224;2023-10-08T16:22:03;1.15;;;0.50;;
16159;SDS011;8185;57.818;15.224;2023-10-08T16:24:31;0.70;;;0.40;;
16159;SDS011;8185;57.818;15.224;2023-10-08T16:26:59;0.60;;;0.47;;
16159;SDS011;8185;57.818;15.224;2023-10-08T16:29:26;0.43;;;0.40;;
16159;SDS011;8185;57.818;15.224;2023-10-08T16:31:55;0.70;;;0.40;;
16159;SDS011;8185;57.818;15.224;2023-10-08T16:34:23;1.30;;;0.50;;
16159;SDS011;8185;57.818;15.224;2023-10-08T16:36:52;1.52;;;0.55;;
16159;SDS011;8185;57.818;15.224;2023-10-08T16:39:21;0.50;;;0.30;;
16159;SDS011;8185;57.818;15.224;2023-10-08T16:41:50;1.10;;;0.40;;
16159;SDS011;8185;57.818;15.224;2023-10-08T16:44:18;0.60;;;0.40;;
16159;SDS011;8185;57.818;15.224;2023-10-08T16:46:47;0.88;;;0.40;;
16159;SDS011;8185;57.818;15.224;2023-10-08T16:49:16;0.55;;;0.45;;
16159;SDS011;8185;57.818;15.224;2023-10-08T16:51:45;0.90;;;0.50;;
16159;SDS011;8185;57.818;15.224;2023-10-08T16:54:12;0.68;;;0.50;;
16159;SDS011;8185;57.818;15.224;2023-10-08T16:56:42;0.70;;;0.40;;
16159;SDS011;8185;57.818;15.224;2023-10-08T16:59:09;0.90;;;0.50;;
16159;SDS011;8185;57.818;15.224;2023-10-08T17:01:39;0.80;;;0.45;;
16159;SDS011;8185;57.818;15.224;2023-10-08T17:04:07;1.50;;;0.60;;
16159;SDS011;8185;57.818;15.224;2023-10-08T17:06:34;0.70;;;0.40;;
16159;SDS011;8185;57.818;15.224;2023-10-08T17:09:01;0.95;;;0.50;;
16159;SDS011;8185;57.818;15.224;2023-10-08T17:11:39;0.63;;;0.40;;
16159;SDS011;8185;57.818;15.224;2023-10-08T17:14:11;2.63;;;0.47;;
16159;SDS011;8185;57.818;15.224;2023-10-08T17:16:39;1.25;;;0.43;;
16159;SDS011;8185;57.818;15.224;2023-10-08T17:19:07;1.10;;;0.50;;
16159;SDS011;8185;57.818;15.224;2023-10-08T17:21:35;0.70;;;0.45;;
16159;SDS011;8185;57.818;15.224;2023-10-08T17:24:02;0.60;;;0.40;;
16159;SDS011;8185;57.818;15.224;2023-10-08T17:26:32;0.70;;;0.50;;
16159;SDS011;8185;57.818;15.224;2023-10-08T17:29:03;1.20;;;0.50;;
16159;SDS011;8185;57.818;15.224;2023-10-08T17:31:31;1.85;;;0.50;;
16159;SDS011;8185;57.818;15.224;2023-10-08T17:33:59;1.50;;;0.50;;
16159;SDS011;8185;57.818;15.224;2023-10-08T17:36:27;0.50;;;0.40;;
16159;SDS011;8185;57.818;15.224;2023-10-08T17:38:58;0.93;;;0.50;;
16159;SDS011;8185;57.818;15.224;2023-10-08T17:41:25;1.50;;;0.55;;
16159;SDS011;8185;57.818;15.224;2023-10-08T17:43:53;0.70;;;0.50;;
16159;SDS011;8185;57.818;15.224;2023-10-08T17:46:22;1.83;;;0.50;;
16159;SDS011;8185;57.818;15.224;2023-10-08T17:48:51;1.27;;;0.60;;
16159;SDS011;8185;57.818;15.224;2023-10-08T17:51:18;0.93;;;0.60;;
16159;SDS011;8185;57.818;15.224;2023-10-08T17:53:46;0.80;;;0.60;;
16159;SDS011;8185;57.818;15.224;2023-10-08T17:56:14;0.80;;;0.50;;
16159;SDS011;8185;57.818;15.224;2023-10-08T17:58:41;0.90;;;0.50;;
16159;SDS011;8185;57.818;15.224;2023-10-08T18:01:09;1.90;;;0.60;;
16159;SDS011;8185;57.818;15.224;2023-10-08T18:03:40;1.05;;;0.68;;
16159;SDS011;8185;57.818;15.224;2023-10-08T18:06:09;1.25;;;0.60;;
16159;SDS011;8185;57.818;15.224;2023-10-08T18:08:37;1.23;;;1.13;;
16159;SDS011;8185;57.818;15.224;2023-10-08T18:11:05;0.68;;;0.60;;
16159;SDS011;8185;57.818;15.224;2023-10-08T18:13:33;0.95;;;0.70;;
16159;SDS011;8185;57.818;15.224;2023-10-08T18:16:06;1.52;;;0.90;;
16159;SDS011;8185;57.818;15.224;2023-10-08T18:18:36;1.90;;;1.40;;
16159;SDS011;8185;57.818;15.224;2023-10-08T18:21:05;1.52;;;1.10;;
16159;SDS011;8185;57.818;15.224;2023-10-08T18:23:35;1.65;;;1.08;;
16159;SDS011;8185;57.818;15.224;2023-10-08T18:26:04;1.90;;;1.17;;
16159;SDS011;8185;57.818;15.224;2023-10-08T18:28:33;1.05;;;0.80;;
16159;SDS011;8185;57.818;15.224;2023-10-08T18:31:03;1.88;;;1.00;;
16159;SDS011;8185;57.818;15.224;2023-10-08T18:33:32;1.27;;;0.82;;
16159;SDS011;8185;57.818;15.224;2023-10-08T18:36:08;1.85;;;0.50;;
16159;SDS011;8185;57.818;15.224;2023-10-08T18:38:36;1.90;;;0.52;;
16159;SDS011;8185;57.818;15.224;2023-10-08T18:41:06;2.40;;;0.68;;
16159;SDS011;8185;57.818;15.224;2023-10-08T18:43:34;0.70;;;0.60;;
16159;SDS011;8185;57.818;15.224;2023-10-08T18:46:01;1.20;;;0.50;;
16159;SDS011;8185;57.818;15.224;2023-10-08T18:48:30;1.20;;;0.47;;
16159;SDS011;8185;57.818;15.224;2023-10-08T18:51:04;0.95;;;0.70;;
16159;SDS011;8185;57.818;15.224;2023-10-08T18:53:34;0.80;;;0.60;;
16159;SDS011;8185;57.818;15.224;2023-10-08T18:56:03;1.20;;;0.60;;
16159;SDS011;8185;57.818;15.224;2023-10-08T18:58:33;0.98;;;0.57;;
16159;SDS011;8185;57.818;15.224;2023-10-08T19:01:01;1.35;;;0.45;;
16159;SDS011;8185;57.818;15.224;2023-10-08T19:03:30;2.50;;;0.55;;
16159;SDS011;8185;57.818;15.224;2023-10-08T19:05:59;1.77;;;0.50;;
16159;SDS011;8185;57.818;15.224;2023-10-08T19:08:26;1.00;;;0.70;;
16159;SDS011;8185;57.818;15.224;2023-10-08T19:10:55;1.00;;;0.70;;
16159;SDS011;8185;57.818;15.224;2023-10-08T19:13:23;0.82;;;0.60;;
16159;SDS011;8185;57.818;15.224;2023-10-08T19:15:53;1.75;;;0.68;;
16159;SDS011;8185;57.818;15.224;2023-10-08T19:18:21;1.60;;;0.80;;
16159;SDS011;8185;57.818;15.224;2023-10-08T19:20:48;0.93;;;0.52;;
16159;SDS011;8185;57.818;15.224;2023-10-08T19:23:16;1.17;;;0.60;;
16159;SDS011;8185;57.818;15.224;2023-10-08T19:25:46;1.20;;;0.70;;
16159;SDS011;8185;57.818;15.224;2023-10-08T19:28:15;2.20;;;0.70;;
16159;SDS011;8185;57.818;15.224;2023-10-08T19:30:45;1.55;;;0.75;;
16159;SDS011;8185;57.818;15.224;2023-10-08T19:33:13;1.60;;;0.90;;
16159;SDS011;8185;57.818;15.224;2023-10-08T19:35:41;1.38;;;1.02;;
16159;SDS011;8185;57.818;15.224;2023-10-08T19:38:10;1.40;;;1.17;;
16159;SDS011;8185;57.818;15.224;2023-10-08T19:40:37;1.40;;;0.80;;
16159;SDS011;8185;57.818;15.224;2023-10-08T19:43:05;1.35;;;0.80;;
16159;SDS011;8185;57.818;15.224;2023-10-08T19:45:36;1.08;;;0.70;;
16159;SDS011;8185;57.818;15.224;2023-10-08T19:48:04;1.03;;;0.80;;
16159;SDS011;8185;57.818;15.224;2023-10-08T19:50:32;0.90;;;0.67;;
16159;SDS011;8185;57.818;15.224;2023-10-08T19:53:01;1.17;;;0.80;;
16159;SDS011;8185;57.818;15.224;2023-10-08T19:55:29;1.20;;;0.60;;
16159;SDS011;8185;57.818;15.224;2023-10-08T19:57:57;1.48;;;0.70;;
16159;SDS011;8185;57.818;15.224;2023-10-08T20:00:24;1.13;;;0.50;;
16159;SDS011;8185;57.818;15.224;2023-10-08T20:02:53;1.67;;;0.60;;
16159;SDS011;8185;57.818;15.224;2023-10-08T20:05:21;1.52;;;0.50;;
16159;SDS011;8185;57.818;15.224;2023-10-08T20:07:48;1.95;;;0.60;;
16159;SDS011;8185;57.818;15.224;2023-10-08T20:10:18;1.30;;;1.00;;
16159;SDS011;8185;57.818;15.224;2023-10-08T20:12:48;1.75;;;1.13;;
16159;SDS011;8185;57.818;15.224;2023-10-08T20:15:18;1.48;;;1.02;;
16159;SDS011;8185;57.818;15.224;2023-10-08T20:17:48;1.30;;;0.75;;
16159;SDS011;8185;57.818;15.224;2023-10-08T20:20:18;1.37;;;0.97;;
16159;SDS011;8185;57.818;15.224;2023-10-08T20:22:48;0.90;;;0.70;;
16159;SDS011;8185;57.818;15.224;2023-10-08T20:25:18;1.75;;;0.75;;
16159;SDS011;8185;57.818;15.224;2023-10-08T20:27:46;1.58;;;0.85;;
16159;SDS011;8185;57.818;15.224;2023-10-08T20:30:14;2.42;;;0.70;;
16159;SDS011;8185;57.818;15.224;2023-10-08T20:32:44;0.93;;;0.80;;
16159;SDS011;8185;57.818;15.224;2023-10-08T20:35:14;1.60;;;0.60;;
16159;SDS011;8185;57.818;15.224;2023-10-08T20:37:44;1.48;;;0.80;;
16159;SDS011;8185;57.818;15.224;2023-10-08T20:40:12;0.95;;;0.65;;
16159;SDS011;8185;57.818;15.224;2023-10-08T20:42:40;0.98;;;0.80;;
16159;SDS011;8185;57.818;15.224;2023-10-08T20:45:08;1.00;;;0.90;;
16159;SDS011;8185;57.818;15.224;2023-10-08T20:47:38;1.48;;;0.90;;
16159;SDS011;8185;57.818;15.224;2023-10-08T20:50:06;1.30;;;0.80;;
16159;SDS011;8185;57.818;15.224;2023-10-08T20:52:41;1.50;;;0.90;;
16159;SDS011;8185;57.818;15.224;2023-10-08T20:55:11;1.00;;;0.80;;
16159;SDS011;8185;57.818;15.224;2023-10-08T20:57:40;1.30;;;1.10;;
16159;SDS011;8185;57.818;15.224;2023-10-08T21:00:10;1.20;;;0.60;;
16159;SDS011;8185;57.818;15.224;2023-10-08T21:02:42;1.25;;;0.80;;
16159;SDS011;8185;57.818;15.224;2023-10-08T21:05:10;1.00;;;0.70;;
16159;SDS011;8185;57.818;15.224;2023-10-08T21:07:37;1.40;;;0.80;;
16159;SDS011;8185;57.818;15.224;2023-10-08T21:10:08;1.60;;;0.80;;
16159;SDS011;8185;57.818;15.224;2023-10-08T21:12:37;2.50;;;1.10;;
16159;SDS011;8185;57.818;15.224;2023-10-08T21:15:06;1.23;;;0.83;;
16159;SDS011;8185;57.818;15.224;2023-10-08T21:17:35;1.15;;;0.90;;
16159;SDS011;8185;57.818;15.224;2023-10-08T21:20:03;1.30;;;0.60;;
16159;SDS011;8185;57.818;15.224;2023-10-08T21:22:35;1.40;;;0.90;;
16159;SDS011;8185;57.818;15.224;2023-10-08T21:25:03;3.10;;;0.55;;
16159;SDS011;8185;57.818;15.224;2023-10-08T21:27:33;0.70;;;0.57;;
16159;SDS011;8185;57.818;15.224;2023-10-08T21:30:02;1.20;;;0.80;;
16159;SDS011;8185;57.818;15.224;2023-10-08T21:32:32;1.20;;;0.60;;
16159;SDS011;8185;57.818;15.224;2023-10-08T21:35:00;0.80;;;0.55;;
16159;SDS011;8185;57.818;15.224;2023-10-08T21:37:27;1.38;;;0.65;;
16159;SDS011;8185;57.818;15.224;2023-10-08T21:39:56;1.83;;;0.55;;
16159;SDS011;8185;57.818;15.224;2023-10-08T21:42:24;1.85;;;0.70;;
16159;SDS011;8185;57.818;15.224;2023-10-08T21:44:53;1.70;;;0.70;;
16159;SDS011;8185;57.818;15.224;2023-10-08T21:47:20;1.50;;;0.88;;
16159;SDS011;8185;57.818;15.224;2023-10-08T21:49:48;0.80;;;0.70;;
16159;SDS011;8185;57.818;15.224;2023-10-08T21:52:15;1.25;;;0.85;;
16159;SDS011;8185;57.818;15.224;2023-10-08T21:54:43;0.90;;;0.57;;
16159;SDS011;8185;57.818;15.224;2023-10-08T21:57:10;1.00;;;0.40;;
16159;SDS011;8185;57.818;15.224;2023-10-08T21:59:37;1.33;;;0.65;;
16159;SDS011;8185;57.818;15.224;2023-10-08T22:02:06;1.80;;;0.60;;
16159;SDS011;8185;57.818;15.224;2023-10-08T22:04:34;0.77;;;0.52;;
16159;SDS011;8185;57.818;15.224;2023-10-08T22:07:03;1.00;;;0.60;;
16159;SDS011;8185;57.818;15.224;2023-10-08T22:09:31;0.85;;;0.50;;
16159;SDS011;8185;57.818;15.224;2023-10-08T22:12:00;1.30;;;0.70;;
16159;SDS011;8185;57.818;15.224;2023-10-08T22:14:28;1.10;;;0.60;;
16159;SDS011;8185;57.818;15.224;2023-10-08T22:16:58;0.77;;;0.57;;
16159;SDS011;8185;57.818;15.224;2023-10-08T22:19:29;1.02;;;0.57;;
16159;SDS011;8185;57.818;15.224;2023-10-08T22:22:08;1.17;;;0.60;;
16159;SDS011;8185;57.818;15.224;2023-10-08T22:24:37;0.77;;;0.50;;
16159;SDS011;8185;57.818;15.224;2023-10-08T22:27:05;0.90;;;0.60;;
16159;SDS011;8185;57.818;15.224;2023-10-08T22:29:47;1.67;;;0.70;;
16159;SDS011;8185;57.818;15.224;2023-10-08T22:32:15;1.35;;;0.75;;
16159;SDS011;8185;57.818;15.224;2023-10-08T22:34:45;1.50;;;0.60;;
16159;SDS011;8185;57.818;15.224;2023-10-08T22:37:20;1.58;;;0.60;;
16159;SDS011;8185;57.818;15.224;2023-10-08T22:39:57;1.00;;;0.60;;
16159;SDS011;8185;57.818;15.224;2023-10-08T22:42:25;1.42;;;0.52;;
16159;SDS011;8185;57.818;15.224;2023-10-08T22:44:52;1.30;;;0.70;;
16159;SDS011;8185;57.818;15.224;2023-10-08T22:47:20;1.40;;;0.60;;
16159;SDS011;8185;57.818;15.224;2023-10-08T22:49:54;1.58;;;0.60;;
16159;SDS011;8185;57.818;15.224;2023-10-08T22:52:21;1.40;;;0.70;;
16159;SDS011;8185;57.818;15.224;2023-10-08T22:54:49;0.70;;;0.60;;
16159;SDS011;8185;57.818;15.224;2023-10-08T22:57:16;1.23;;;0.70;;
16159;SDS011;8185;57.818;15.224;2023-10-08T22:59:46;1.10;;;0.70;;
16159;SDS011;8185;57.818;15.224;2023-10-08T23:02:14;2.05;;;0.50;;
16159;SDS011;8185;57.818;15.224;2023-10-08T23:04:44;1.10;;;0.70;;
16159;SDS011;8185;57.818;15.224;2023-10-08T23:07:13;1.00;;;0.77;;
16159;SDS011;8185;57.818;15.224;2023-10-08T23:09:41;0.75;;;0.57;;
16159;SDS011;8185;57.818;15.224;2023-10-08T23:12:08;1.23;;;0.70;;
16159;SDS011;8185;57.818;15.224;2023-10-08T23:14:35;1.60;;;0.70;;
16159;SDS011;8185;57.818;15.224;2023-10-08T23:17:03;0.95;;;0.70;;
16159;SDS011;8185;57.818;15.224;2023-10-08T23:19:32;1.13;;;0.80;;
16159;SDS011;8185;57.818;15.224;2023-10-08T23:22:00;2.22;;;0.80;;
16159;SDS011;8185;57.818;15.224;2023-10-08T23:24:28;1.33;;;0.77;;
16159;SDS011;8185;57.818;15.224;2023-10-08T23:26:57;1.33;;;0.70;;
16159;SDS011;8185;57.818;15.224;2023-10-08T23:29:24;2.05;;;0.80;;
16159;SDS011;8185;57.818;15.224;2023-10-08T23:31:52;1.67;;;0.70;;
16159;SDS011;8185;57.818;15.224;2023-10-08T23:34:23;1.92;;;0.70;;
16159;SDS011;8185;57.818;15.224;2023-10-08T23:36:52;1.35;;;0.70;;
16159;SDS011;8185;57.818;15.224;2023-10-08T23:39:36;1.60;;;0.70;;
16159;SDS011;8185;57.818;15.224;2023-10-08T23:42:04;0.80;;;0.70;;
16159;SDS011;8185;57.818;15.224;2023-10-08T23:44:49;1.75;;;0.80;;
16159;SDS011;8185;57.818;15.224;2023-10-08T23:47:17;1.02;;;0.60;;
16159;SDS011;8185;57.818;15.224;2023-10-08T23:49:52;1.45;;;0.50;;
16159;SDS011;8185;57.818;15.224;2023-10-08T23:52:26;1.20;;;0.60;;
16159;SDS011;8185;57.818;15.224;2023-10-08T23:54:59;2.47;;;0.80;;
16159;SDS011;8185;57.818;15.224;2023-10-08T23:57:28;1.30;;;0.80;;
